Time;durP1;ratioP1;P1;durP2;ratioP2;P2;SDS_P1;SDS_P2;PMS_P1;PMS_P2;Temp;Humidity;BMP_temperature;BMP_pressure;BME280_temperature;BME280_humidity;BME280_pressure;Samples;Min_cycle;Max_cycle;Signal;HPM_P1;HPM_P2
2023/07/26 00:00:23;;;;;;;7.30;2.38;;;13.60;99.90;;;;;;5003809;28;20111;-80
2023/07/26 00:02:49;;;;;;;7.28;2.30;;;13.60;99.90;;;;;;5005124;28;20049;-80
2023/07/26 00:05:15;;;;;;;5.30;2.05;;;13.60;99.90;;;;;;4991633;28;20116;-79
2023/07/26 00:07:40;;;;;;;6.72;2.20;;;13.60;99.90;;;;;;5010684;28;20301;-80
2023/07/26 00:10:06;;;;;;;6.55;2.20;;;13.60;99.90;;;;;;5001630;28;20052;-80
2023/07/26 00:12:32;;;;;;;5.40;2.00;;;13.60;99.90;;;;;;4993948;28;20033;-80
2023/07/26 00:14:58;;;;;;;9.45;2.70;;;13.60;99.90;;;;;;5029026;28;20037;-80
2023/07/26 00:17:24;;;;;;;7.53;2.60;;;13.60;99.90;;;;;;4996152;28;20049;-79
2023/07/26 00:19:50;;;;;;;9.07;2.88;;;13.60;99.90;;;;;;4995022;28;20041;-79
2023/07/26 00:22:15;;;;;;;7.35;2.38;;;13.60;99.90;;;;;;4994608;28;20041;-79
2023/07/26 00:24:41;;;;;;;6.80;2.55;;;13.60;99.90;;;;;;4996494;28;20140;-80
2023/07/26 00:27:07;;;;;;;6.65;2.30;;;13.60;99.90;;;;;;5000367;28;20098;-80
2023/07/26 00:29:32;;;;;;;7.20;2.20;;;13.60;99.90;;;;;;5007813;28;20037;-79
2023/07/26 00:31:58;;;;;;;7.32;2.50;;;13.60;99.90;;;;;;5009497;28;20055;-80
2023/07/26 00:34:24;;;;;;;7.95;2.40;;;13.70;99.90;;;;;;4995887;28;20530;-80
2023/07/26 00:36:49;;;;;;;8.70;2.75;;;13.70;99.90;;;;;;5000987;28;20068;-79
2023/07/26 00:39:15;;;;;;;8.27;2.55;;;13.70;99.90;;;;;;4994616;28;20432;-80
2023/07/26 00:41:41;;;;;;;11.48;2.85;;;13.70;99.90;;;;;;5006449;28;20056;-79
2023/07/26 00:44:07;;;;;;;8.48;2.70;;;13.70;99.90;;;;;;5006420;28;20481;-80
2023/07/26 00:46:33;;;;;;;8.07;2.38;;;13.70;99.90;;;;;;4996003;28;20274;-80
2023/07/26 00:48:59;;;;;;;7.78;2.70;;;13.70;99.90;;;;;;5012122;28;20095;-80
2023/07/26 00:51:26;;;;;;;8.00;2.47;;;13.70;99.90;;;;;;5010739;28;20041;-80
2023/07/26 00:53:53;;;;;;;7.38;2.58;;;13.70;99.90;;;;;;4994065;28;20151;-80
2023/07/26 00:56:18;;;;;;;7.30;2.30;;;13.60;99.90;;;;;;4990847;28;20403;-80
2023/07/26 00:58:45;;;;;;;7.65;2.30;;;13.60;99.90;;;;;;4993869;28;20049;-80
2023/07/26 01:01:10;;;;;;;7.68;2.65;;;13.60;99.90;;;;;;4979822;28;20532;-80
2023/07/26 01:03:36;;;;;;;7.13;2.10;;;13.60;99.90;;;;;;5010421;28;20128;-80
2023/07/26 01:06:34;;;;;;;7.53;2.47;;;13.60;99.90;;;;;;4992277;28;20076;-80
2023/07/26 01:09:26;;;;;;;7.32;2.55;;;13.60;99.90;;;;;;5010610;28;20429;-80
2023/07/26 01:12:09;;;;;;;7.95;2.55;;;13.60;99.90;;;;;;5008525;28;20072;-80
2023/07/26 01:14:38;;;;;;;;;;;13.60;99.90;;;;;;5010297;28;20162;-80
2023/07/26 01:17:04;;;;;;;7.35;2.42;;;13.60;99.90;;;;;;5012952;28;19960;-79
2023/07/26 01:19:30;;;;;;;7.68;2.70;;;13.50;99.90;;;;;;4972773;28;20048;-80
2023/07/26 01:21:56;;;;;;;7.80;2.50;;;13.60;99.90;;;;;;4997961;28;20037;-80
2023/07/26 01:24:22;;;;;;;7.75;2.60;;;13.60;99.90;;;;;;4987201;28;20080;-80
2023/07/26 01:26:48;;;;;;;7.38;2.50;;;13.60;99.90;;;;;;4974075;28;20065;-80
2023/07/26 01:29:14;;;;;;;9.30;2.90;;;13.60;99.90;;;;;;5000913;28;20046;-80
2023/07/26 01:31:39;;;;;;;7.88;2.60;;;13.60;99.90;;;;;;4995380;28;20054;-80
2023/07/26 01:34:09;;;;;;;8.75;2.80;;;13.60;99.90;;;;;;5026626;28;20054;-80
2023/07/26 01:36:35;;;;;;;9.73;2.60;;;13.60;99.90;;;;;;5006189;28;20120;-80
2023/07/26 01:39:03;;;;;;;8.73;2.83;;;13.60;99.90;;;;;;5011375;28;20492;-80
2023/07/26 01:41:30;;;;;;;9.20;2.63;;;13.70;99.90;;;;;;5003758;28;20068;-80
2023/07/26 01:43:56;;;;;;;8.65;2.70;;;13.60;99.90;;;;;;5007236;28;20053;-80
2023/07/26 01:46:22;;;;;;;8.23;2.63;;;13.60;99.90;;;;;;5028761;28;20081;-80
2023/07/26 01:48:48;;;;;;;8.45;2.67;;;13.60;99.90;;;;;;5011477;28;20084;-81
2023/07/26 01:51:13;;;;;;;10.55;2.67;;;13.60;99.90;;;;;;4993510;28;20038;-80
2023/07/26 01:53:39;;;;;;;9.55;2.70;;;13.60;99.90;;;;;;4985824;28;20515;-81
2023/07/26 01:56:05;;;;;;;8.23;2.60;;;13.50;99.90;;;;;;5011338;28;20068;-80
2023/07/26 01:58:31;;;;;;;8.20;2.38;;;13.50;99.90;;;;;;4977648;28;20530;-80
2023/07/26 02:00:56;;;;;;;7.78;2.42;;;13.50;99.90;;;;;;5025458;28;20083;-80
2023/07/26 02:03:22;;;;;;;7.65;2.60;;;13.40;99.90;;;;;;5012062;28;20076;-80
2023/07/26 02:05:48;;;;;;;7.97;2.80;;;13.40;99.90;;;;;;4995649;28;20129;-81
2023/07/26 02:08:16;;;;;;;7.50;2.90;;;13.40;99.90;;;;;;4987358;28;20034;-80
2023/07/26 02:10:42;;;;;;;8.68;3.03;;;13.40;99.90;;;;;;5008085;28;20034;-80
2023/07/26 02:13:08;;;;;;;8.27;2.80;;;13.40;99.90;;;;;;4994584;28;20049;-80
2023/07/26 02:15:34;;;;;;;7.25;2.70;;;13.30;99.90;;;;;;4994286;28;20064;-80
2023/07/26 02:17:59;;;;;;;9.70;3.38;;;13.30;99.90;;;;;;5009322;28;20126;-80
2023/07/26 02:20:25;;;;;;;7.65;2.83;;;13.20;99.90;;;;;;4990025;28;20089;-81
2023/07/26 02:22:52;;;;;;;9.50;3.13;;;13.20;99.90;;;;;;4991684;28;20476;-80
2023/07/26 02:25:17;;;;;;;9.77;3.00;;;13.20;99.90;;;;;;5010998;28;20060;-80
2023/07/26 02:27:43;;;;;;;8.38;2.95;;;13.10;99.90;;;;;;5009689;28;20042;-80
2023/07/26 02:30:09;;;;;;;10.85;3.10;;;13.10;99.90;;;;;;5006306;28;20044;-80
2023/07/26 02:32:35;;;;;;;8.60;2.90;;;13.10;99.90;;;;;;4990281;28;20034;-80
2023/07/26 02:35:01;;;;;;;7.90;2.90;;;13.00;99.90;;;;;;5027975;28;20510;-80
2023/07/26 02:37:26;;;;;;;9.77;2.90;;;13.00;99.90;;;;;;4975357;28;20104;-80
2023/07/26 02:39:52;;;;;;;8.35;2.83;;;13.00;99.90;;;;;;4994725;28;20491;-79
2023/07/26 02:42:18;;;;;;;9.40;2.92;;;12.90;99.90;;;;;;4994008;28;20061;-80
2023/07/26 02:44:47;;;;;;;7.53;2.72;;;12.90;99.90;;;;;;5010081;28;20092;-80
2023/07/26 02:47:12;;;;;;;7.20;2.53;;;12.90;99.90;;;;;;4976929;28;20108;-80
2023/07/26 02:49:38;;;;;;;8.18;2.63;;;12.90;99.90;;;;;;4995217;28;20045;-80
2023/07/26 02:52:04;;;;;;;9.43;3.10;;;12.90;99.90;;;;;;5005840;28;20503;-80
2023/07/26 02:54:30;;;;;;;8.73;3.00;;;12.90;99.90;;;;;;5010280;28;20045;-80
2023/07/26 02:56:56;;;;;;;8.73;2.80;;;12.90;99.90;;;;;;4994281;28;20046;-80
2023/07/26 02:59:21;;;;;;;8.43;2.97;;;12.90;99.90;;;;;;4975540;28;20042;-80
2023/07/26 03:01:47;;;;;;;8.93;2.88;;;12.90;99.90;;;;;;4972212;28;20442;-80
2023/07/26 03:04:13;;;;;;;8.57;2.80;;;12.90;99.90;;;;;;4993363;28;20053;-79
2023/07/26 03:06:40;;;;;;;7.95;2.80;;;12.90;99.90;;;;;;4989736;28;20219;-80
2023/07/26 03:09:06;;;;;;;11.57;3.20;;;12.90;99.90;;;;;;4991817;28;20550;-79
2023/07/26 03:11:32;;;;;;;8.30;2.95;;;12.90;99.90;;;;;;5004063;28;20042;-80
2023/07/26 03:13:58;;;;;;;8.18;2.90;;;12.90;99.90;;;;;;5007454;28;20045;-79
2023/07/26 03:16:23;;;;;;;8.63;3.22;;;12.90;99.90;;;;;;4973644;28;20042;-80
2023/07/26 03:18:49;;;;;;;7.88;3.00;;;12.80;99.90;;;;;;5006788;28;20129;-79
2023/07/26 03:21:15;;;;;;;8.63;3.50;;;12.80;99.90;;;;;;4994409;28;20042;-79
2023/07/26 03:23:41;;;;;;;9.07;3.08;;;12.80;99.90;;;;;;4992726;28;20585;-80
2023/07/26 03:26:07;;;;;;;9.05;2.85;;;12.80;99.90;;;;;;5022285;28;20050;-80
2023/07/26 03:28:32;;;;;;;8.75;3.15;;;12.80;99.90;;;;;;4988633;28;20048;-80
2023/07/26 03:31:00;;;;;;;8.52;3.28;;;12.70;99.90;;;;;;5003287;28;20038;-80
2023/07/26 03:33:26;;;;;;;7.93;3.08;;;12.70;99.90;;;;;;4969887;28;20045;-80
2023/07/26 03:35:52;;;;;;;8.20;3.15;;;12.70;99.90;;;;;;5024860;28;20037;-80
2023/07/26 03:38:17;;;;;;;9.35;3.85;;;12.70;99.90;;;;;;5024664;28;20046;-80
2023/07/26 03:40:43;;;;;;;9.13;3.30;;;12.70;99.90;;;;;;4991018;28;20070;-79
2023/07/26 03:43:09;;;;;;;10.85;3.80;;;12.70;99.90;;;;;;5004139;28;20043;-79
2023/07/26 03:45:35;;;;;;;11.70;3.70;;;12.60;99.90;;;;;;5010354;28;20069;-79
2023/07/26 03:48:01;;;;;;;9.43;3.50;;;12.60;99.90;;;;;;5009800;28;20188;-79
2023/07/26 03:50:27;;;;;;;9.07;3.83;;;12.60;99.90;;;;;;5007929;28;20120;-79
2023/07/26 03:52:53;;;;;;;8.63;3.55;;;12.60;99.90;;;;;;5007755;28;20403;-79
2023/07/26 03:55:18;;;;;;;9.02;3.85;;;12.60;99.90;;;;;;5010015;28;20117;-79
2023/07/26 03:57:44;;;;;;;9.15;3.65;;;12.60;99.90;;;;;;4974777;28;20558;-79
2023/07/26 04:00:10;;;;;;;9.60;3.58;;;12.70;99.90;;;;;;5009769;28;20052;-79
2023/07/26 04:02:36;;;;;;;9.73;4.13;;;12.60;99.90;;;;;;5021346;28;20045;-80
2023/07/26 04:05:02;;;;;;;10.73;3.95;;;12.70;99.90;;;;;;5009771;28;20053;-80
2023/07/26 04:07:28;;;;;;;9.57;3.78;;;12.70;99.90;;;;;;4991536;28;20553;-80
2023/07/26 04:09:53;;;;;;;10.65;4.32;;;12.70;99.90;;;;;;4970600;28;20041;-80
2023/07/26 04:12:19;;;;;;;9.65;3.60;;;12.70;99.90;;;;;;5001853;28;20049;-80
2023/07/26 04:14:45;;;;;;;9.77;3.80;;;12.70;99.90;;;;;;4993387;28;20443;-80
2023/07/26 04:17:10;;;;;;;8.50;3.70;;;12.70;99.90;;;;;;4947750;28;20118;-80
2023/07/26 04:19:36;;;;;;;9.27;3.50;;;12.70;99.90;;;;;;4994209;28;20164;-79
2023/07/26 04:22:02;;;;;;;8.68;3.65;;;12.70;99.90;;;;;;4974637;28;20407;-80
2023/07/26 04:24:28;;;;;;;8.88;3.53;;;12.70;99.90;;;;;;4991959;28;20086;-80
2023/07/26 04:26:53;;;;;;;9.18;3.40;;;12.70;99.90;;;;;;4991130;28;20101;-80
2023/07/26 04:29:19;;;;;;;9.60;3.88;;;12.70;99.90;;;;;;4982988;28;20051;-80
2023/07/26 04:31:45;;;;;;;9.38;3.72;;;12.70;99.90;;;;;;4992042;28;20045;-80
2023/07/26 04:34:14;;;;;;;8.88;3.90;;;12.70;99.90;;;;;;4988646;28;20038;-80
2023/07/26 04:36:41;;;;;;;10.13;3.75;;;12.70;99.90;;;;;;5008062;28;20077;-80
2023/07/26 04:39:07;;;;;;;8.93;3.83;;;12.70;99.90;;;;;;4984196;28;20113;-80
2023/07/26 04:41:33;;;;;;;10.82;4.00;;;12.70;99.90;;;;;;4971203;28;20670;-80
2023/07/26 04:43:58;;;;;;;9.70;3.90;;;12.80;99.90;;;;;;4988498;28;20132;-80
2023/07/26 04:46:24;;;;;;;9.07;3.95;;;12.80;99.90;;;;;;4986896;28;20726;-80
2023/07/26 04:48:50;;;;;;;9.88;3.92;;;12.90;99.90;;;;;;4985603;28;20038;-80
2023/07/26 04:51:15;;;;;;;9.70;3.90;;;12.90;99.90;;;;;;4967327;28;20500;-80
2023/07/26 04:53:41;;;;;;;10.10;4.00;;;12.90;99.90;;;;;;4984673;28;20265;-81
2023/07/26 04:56:07;;;;;;;9.05;3.65;;;12.90;99.90;;;;;;5007917;28;20558;-80
2023/07/26 04:58:33;;;;;;;10.45;4.20;;;12.90;99.90;;;;;;4990064;28;20048;-80
2023/07/26 05:00:59;;;;;;;9.25;3.80;;;12.90;99.90;;;;;;4990896;28;20129;-79
2023/07/26 05:03:24;;;;;;;9.23;3.75;;;12.90;99.90;;;;;;4987507;28;20061;-80
2023/07/26 05:05:51;;;;;;;10.93;3.90;;;12.90;99.90;;;;;;4992025;28;20495;-80
2023/07/26 05:08:21;;;;;;;9.18;3.85;;;12.90;99.90;;;;;;4990968;28;20101;-79
2023/07/26 05:10:51;;;;;;;11.75;3.95;;;13.00;99.90;;;;;;5007364;28;20108;-79
2023/07/26 05:13:18;;;;;;;10.18;3.90;;;13.10;99.90;;;;;;4989003;28;20038;-80
2023/07/26 05:15:43;;;;;;;11.73;4.05;;;13.20;99.90;;;;;;4991074;28;20488;-79
2023/07/26 05:18:09;;;;;;;10.70;3.97;;;13.30;99.90;;;;;;4991940;28;20057;-79
2023/07/26 05:20:36;;;;;;;9.50;4.05;;;13.40;99.90;;;;;;4967239;28;20523;-79
2023/07/26 05:23:02;;;;;;;10.30;3.85;;;13.50;99.90;;;;;;5005418;28;20054;-80
2023/07/26 05:25:27;;;;;;;9.73;3.70;;;13.60;99.90;;;;;;5006435;28;20042;-80
2023/07/26 05:27:54;;;;;;;10.45;3.95;;;13.70;99.90;;;;;;4975224;28;20512;-81
2023/07/26 05:30:20;;;;;;;9.63;3.65;;;13.80;99.90;;;;;;4991134;28;20052;-80
2023/07/26 05:32:46;;;;;;;8.77;3.63;;;14.00;99.90;;;;;;4970494;28;20483;-80
2023/07/26 05:35:12;;;;;;;8.85;3.40;;;14.00;99.90;;;;;;4970953;28;20090;-81
2023/07/26 05:37:38;;;;;;;10.05;3.55;;;14.10;99.90;;;;;;5001674;28;20066;-80
2023/07/26 05:40:08;;;;;;;8.98;3.17;;;14.00;99.90;;;;;;4990702;28;20045;-80
2023/07/26 05:42:35;;;;;;;13.98;3.92;;;14.10;99.90;;;;;;4991342;28;20056;-80
2023/07/26 05:45:00;;;;;;;8.68;3.40;;;14.10;99.90;;;;;;4991170;28;20045;-81
2023/07/26 05:47:26;;;;;;;8.80;3.40;;;14.20;99.90;;;;;;5004303;28;20033;-80
2023/07/26 05:49:52;;;;;;;8.57;3.30;;;14.20;99.90;;;;;;5005780;28;20034;-80
2023/07/26 05:52:18;;;;;;;8.73;3.33;;;14.20;99.90;;;;;;5002096;28;20522;-80
2023/07/26 05:54:44;;;;;;;9.05;3.17;;;14.30;99.90;;;;;;5004192;28;20066;-80
2023/07/26 05:57:10;;;;;;;9.13;3.58;;;14.30;99.90;;;;;;5006799;28;20085;-80
2023/07/26 05:59:35;;;;;;;8.25;3.15;;;14.30;99.90;;;;;;5023797;28;20037;-80
2023/07/26 06:02:01;;;;;;;7.93;2.75;;;14.30;99.90;;;;;;5010638;28;20041;-81
2023/07/26 06:04:31;;;;;;;8.02;2.70;;;14.30;99.90;;;;;;4995875;28;20096;-81
2023/07/26 06:06:57;;;;;;;8.20;2.72;;;14.30;99.90;;;;;;5011792;28;20050;-81
2023/07/26 06:09:25;;;;;;;7.75;2.63;;;14.30;99.90;;;;;;5008873;28;20060;-81
2023/07/26 06:11:51;;;;;;;6.88;2.35;;;14.30;99.90;;;;;;4985503;28;20049;-81
2023/07/26 06:14:17;;;;;;;7.30;2.60;;;14.30;99.90;;;;;;5002400;28;20273;-81
2023/07/26 06:16:43;;;;;;;7.13;2.42;;;14.20;99.90;;;;;;4981845;28;20042;-81
2023/07/26 06:19:08;;;;;;;7.18;2.40;;;14.20;99.90;;;;;;4977718;28;20050;-81
2023/07/26 06:21:34;;;;;;;8.30;2.47;;;14.10;99.90;;;;;;4992852;28;20065;-81
2023/07/26 06:24:00;;;;;;;9.38;3.25;;;14.10;99.90;;;;;;5009330;28;20065;-81
2023/07/26 06:26:25;;;;;;;7.85;2.50;;;14.10;99.90;;;;;;4993613;28;20054;-81
2023/07/26 06:28:51;;;;;;;7.95;2.72;;;14.10;99.90;;;;;;5005728;28;20650;-81
2023/07/26 06:31:17;;;;;;;7.47;2.70;;;14.00;99.90;;;;;;4982676;28;20050;-81
2023/07/26 06:33:43;;;;;;;8.60;2.53;;;14.60;99.90;;;;;;4985983;28;20030;-81
2023/07/26 06:36:08;;;;;;;7.40;2.35;;;14.00;99.90;;;;;;5024657;28;20100;-81
2023/07/26 06:38:34;;;;;;;7.00;2.30;;;14.00;99.90;;;;;;5005807;28;20038;-81
2023/07/26 06:41:00;;;;;;;7.07;2.28;;;14.00;99.90;;;;;;5003086;28;20046;-80
2023/07/26 06:43:27;;;;;;;8.38;2.50;;;14.00;99.90;;;;;;5020458;28;20034;-80
2023/07/26 06:45:52;;;;;;;7.80;2.45;;;14.20;99.90;;;;;;5003172;28;20041;-81
2023/07/26 06:48:19;;;;;;;7.97;2.40;;;14.50;99.90;;;;;;5004445;28;20483;-80
2023/07/26 06:50:45;;;;;;;7.90;2.40;;;14.80;99.90;;;;;;5006525;28;20480;-80
2023/07/26 06:53:11;;;;;;;6.88;2.47;;;15.00;99.90;;;;;;5007059;28;20033;-81
2023/07/26 06:55:38;;;;;;;7.13;2.20;;;15.10;99.90;;;;;;5012539;28;20395;-80
2023/07/26 06:58:04;;;;;;;8.10;2.45;;;15.10;99.90;;;;;;5007859;28;20078;-80
2023/07/26 07:00:30;;;;;;;7.03;2.47;;;15.40;99.90;;;;;;5005228;28;20042;-81
2023/07/26 07:03:00;;;;;;;6.68;2.25;;;15.40;99.90;;;;;;4987917;28;20121;-80
2023/07/26 07:05:30;;;;;;;6.20;2.20;;;15.40;99.90;;;;;;4980980;28;20124;-81
2023/07/26 07:07:56;;;;;;;9.32;2.72;;;15.50;99.90;;;;;;4981037;28;20069;-81
2023/07/26 07:10:22;;;;;;;6.30;2.20;;;15.40;99.90;;;;;;5007191;28;20040;-81
2023/07/26 07:12:49;;;;;;;5.80;2.38;;;15.30;99.90;;;;;;5007878;28;20458;-80
2023/07/26 07:15:15;;;;;;;6.25;2.15;;;15.30;99.90;;;;;;4987079;28;20577;-80
2023/07/26 07:17:41;;;;;;;5.80;2.20;;;15.40;99.90;;;;;;5002993;28;20037;-81
2023/07/26 07:20:07;;;;;;;6.00;2.00;;;15.40;99.90;;;;;;4992857;28;20427;-80
2023/07/26 07:22:34;;;;;;;6.38;2.35;;;15.40;99.90;;;;;;5021933;28;20581;-81
2023/07/26 07:25:00;;;;;;;7.68;2.40;;;15.60;99.90;;;;;;5006075;28;20045;-81
2023/07/26 07:27:26;;;;;;;5.85;2.13;;;15.80;99.90;;;;;;4993605;28;20034;-81
2023/07/26 07:29:51;;;;;;;7.22;2.17;;;15.90;99.90;;;;;;5005350;28;20034;-81
2023/07/26 07:32:18;;;;;;;6.57;2.33;;;15.90;99.90;;;;;;4993950;28;20490;-81
2023/07/26 07:34:45;;;;;;;6.30;2.17;;;15.90;99.90;;;;;;5008232;28;20099;-81
2023/07/26 07:37:11;;;;;;;7.38;2.30;;;15.80;99.90;;;;;;5004569;28;20394;-81
2023/07/26 07:39:37;;;;;;;7.90;2.22;;;15.70;99.90;;;;;;5011612;28;20112;-81
2023/07/26 07:42:03;;;;;;;7.10;2.30;;;15.80;99.90;;;;;;5007866;28;20069;-80
2023/07/26 07:44:29;;;;;;;8.00;2.38;;;15.90;99.90;;;;;;4977544;28;20139;-81
2023/07/26 07:46:55;;;;;;;7.57;2.22;;;16.00;99.90;;;;;;4974094;28;20076;-80
2023/07/26 07:49:21;;;;;;;6.47;2.17;;;16.10;99.90;;;;;;5005604;28;20076;-81
2023/07/26 07:51:47;;;;;;;7.68;2.50;;;16.30;99.90;;;;;;4987534;28;20041;-80
2023/07/26 07:54:13;;;;;;;7.03;2.35;;;16.40;99.90;;;;;;5008696;28;20044;-80
2023/07/26 07:56:39;;;;;;;7.88;2.33;;;16.60;99.90;;;;;;5004969;28;20037;-80
2023/07/26 07:59:05;;;;;;;7.35;2.10;;;16.60;99.90;;;;;;5005570;28;20487;-80
2023/07/26 08:01:32;;;;;;;5.55;1.80;;;16.70;99.90;;;;;;5006003;28;20040;-80
2023/07/26 08:03:59;;;;;;;4.70;1.73;;;16.80;99.90;;;;;;5009919;28;20073;-80
2023/07/26 08:06:29;;;;;;;3.92;1.70;;;16.90;99.90;;;;;;4996145;28;20281;-81
2023/07/26 08:08:55;;;;;;;4.80;1.70;;;16.90;99.90;;;;;;5010915;28;20034;-80
2023/07/26 08:11:22;;;;;;;5.38;1.95;;;17.00;99.90;;;;;;4978792;28;20053;-81
2023/07/26 08:13:48;;;;;;;5.55;1.98;;;17.00;99.90;;;;;;4993287;28;20129;-80
2023/07/26 08:16:14;;;;;;;5.13;1.80;;;16.90;99.90;;;;;;4995059;28;20483;-80
2023/07/26 08:18:40;;;;;;;6.20;1.83;;;16.80;99.90;;;;;;5009913;28;20120;-80
2023/07/26 08:21:05;;;;;;;8.48;2.30;;;16.80;99.90;;;;;;4994831;28;20037;-80
2023/07/26 08:23:32;;;;;;;5.45;2.00;;;16.80;99.90;;;;;;5010571;28;20056;-81
2023/07/26 08:26:07;;;;;;;5.82;1.95;;;16.80;99.90;;;;;;4989870;28;20099;-81
2023/07/26 08:28:34;;;;;;;6.20;1.90;;;16.80;99.90;;;;;;5011889;28;20037;-80
2023/07/26 08:31:00;;;;;;;6.10;2.08;;;16.80;99.90;;;;;;4994401;28;20132;-81
2023/07/26 08:33:25;;;;;;;5.40;2.00;;;16.90;99.90;;;;;;4993825;28;20112;-79
2023/07/26 08:35:51;;;;;;;6.53;1.98;;;16.90;99.90;;;;;;4979417;28;20052;-80
2023/07/26 08:38:20;;;;;;;3.58;1.65;;;16.90;99.90;;;;;;4974320;28;20042;-80
2023/07/26 08:40:47;;;;;;;5.22;2.05;;;17.10;99.90;;;;;;4993648;28;20465;-79
2023/07/26 08:43:18;;;;;;;5.07;1.95;;;17.20;99.90;;;;;;4994045;28;20087;-79
2023/07/26 08:45:45;;;;;;;5.95;1.95;;;17.40;99.90;;;;;;4988838;28;20045;-79
2023/07/26 08:48:11;;;;;;;4.68;1.75;;;17.60;99.90;;;;;;5012076;28;20052;-79
2023/07/26 08:50:41;;;;;;;4.78;1.70;;;17.70;99.90;;;;;;4994200;28;20042;-79
2023/07/26 08:53:07;;;;;;;5.80;2.17;;;17.80;99.90;;;;;;4988615;28;20124;-79
2023/07/26 08:55:34;;;;;;;4.85;1.70;;;17.90;99.90;;;;;;4991511;28;20041;-80
2023/07/26 08:58:00;;;;;;;4.05;1.60;;;17.90;99.90;;;;;;4985736;28;20136;-79
2023/07/26 09:00:27;;;;;;;5.40;1.90;;;17.90;99.90;;;;;;5006463;28;20103;-79
2023/07/26 09:02:57;;;;;;;6.00;1.95;;;18.20;99.90;;;;;;5004792;28;20076;-79
2023/07/26 09:05:23;;;;;;;4.75;2.03;;;18.10;99.90;;;;;;4990510;28;20288;-79
2023/07/26 09:07:51;;;;;;;6.03;1.90;;;18.30;99.90;;;;;;4988369;28;20677;-79
2023/07/26 09:10:28;;;;;;;7.03;2.33;;;18.40;99.90;;;;;;5008841;28;20041;-79
2023/07/26 09:13:11;;;;;;;5.28;2.13;;;18.30;99.90;;;;;;5008193;28;20067;-80
2023/07/26 09:15:40;;;;;;;7.07;2.45;;;18.20;99.90;;;;;;5005193;28;20030;-79
2023/07/26 09:18:06;;;;;;;7.95;2.38;;;18.20;99.90;;;;;;4987805;28;20037;-79
2023/07/26 09:20:33;;;;;;;6.35;2.40;;;18.20;99.90;;;;;;4990890;28;20053;-79
2023/07/26 09:23:10;;;;;;;6.00;2.40;;;18.20;99.90;;;;;;4990780;28;20053;-78
2023/07/26 09:25:42;;;;;;;6.65;2.30;;;18.40;99.90;;;;;;5006819;28;20049;-79
2023/07/26 09:28:17;;;;;;;7.28;2.40;;;18.40;99.90;;;;;;4987055;28;20053;-80
2023/07/26 09:30:48;;;;;;;6.20;2.30;;;18.40;99.90;;;;;;4994448;28;20034;-79
2023/07/26 09:33:16;;;;;;;7.05;2.42;;;18.50;99.90;;;;;;5009581;28;20503;-79
2023/07/26 09:35:54;;;;;;;5.82;2.20;;;18.60;99.90;;;;;;5006588;28;20068;-80
2023/07/26 09:38:25;;;;;;;7.00;2.42;;;18.80;99.90;;;;;;5007981;28;20053;-79
2023/07/26 09:40:51;;;;;;;6.57;2.40;;;18.90;99.90;;;;;;4975531;28;20049;-79
2023/07/26 09:43:31;;;;;;;6.90;2.40;;;18.70;99.90;;;;;;4993254;28;20038;-79
2023/07/26 09:46:05;;;;;;;6.45;2.40;;;18.60;99.90;;;;;;5010581;28;20033;-79
2023/07/26 09:48:31;;;;;;;6.20;2.42;;;18.70;99.90;;;;;;5011710;28;20077;-79
2023/07/26 09:51:03;;;;;;;6.63;2.20;;;18.80;99.90;;;;;;4992295;28;20293;-79
2023/07/26 09:53:31;;;;;;;7.13;2.50;;;18.70;99.90;;;;;;5026347;28;20069;-80
2023/07/26 09:55:57;;;;;;;7.00;2.30;;;18.50;99.90;;;;;;5024933;28;20045;-79
2023/07/26 09:58:27;;;;;;;8.65;3.00;;;18.30;99.90;;;;;;4994361;28;20453;-79
2023/07/26 10:00:55;;;;;;;8.05;2.55;;;18.20;99.90;;;;;;5023917;28;20409;-79
2023/07/26 10:03:22;;;;;;;7.80;2.50;;;18.40;99.90;;;;;;5007980;28;20092;-79
2023/07/26 10:05:50;;;;;;;7.93;2.70;;;18.60;99.90;;;;;;4992806;28;20498;-79
2023/07/26 10:08:18;;;;;;;8.63;2.70;;;18.90;99.90;;;;;;4994556;28;20043;-78
2023/07/26 10:10:47;;;;;;;6.57;2.35;;;19.10;99.90;;;;;;4978632;28;20041;-79
2023/07/26 10:13:15;;;;;;;7.30;2.53;;;19.40;99.90;;;;;;5008164;28;20043;-79
2023/07/26 10:15:46;;;;;;;7.32;2.55;;;19.60;99.90;;;;;;5009400;28;20049;-79
2023/07/26 10:18:14;;;;;;;7.20;2.33;;;19.40;99.90;;;;;;5011570;28;20041;-80
2023/07/26 10:20:43;;;;;;;6.65;2.13;;;19.10;99.90;;;;;;5006161;28;20037;-81
2023/07/26 10:23:11;;;;;;;5.95;2.03;;;18.50;99.90;;;;;;5006890;28;20200;-80
2023/07/26 10:25:39;;;;;;;6.18;2.13;;;18.10;99.90;;;;;;5005763;28;20584;-80
2023/07/26 10:28:06;;;;;;;7.72;2.25;;;17.90;99.90;;;;;;4995781;28;20045;-79
2023/07/26 10:30:32;;;;;;;7.70;2.30;;;18.00;99.90;;;;;;5013876;28;20041;-80
2023/07/26 10:33:00;;;;;;;6.00;2.28;;;18.40;99.90;;;;;;4991703;28;20056;-79
2023/07/26 10:35:27;;;;;;;7.60;2.30;;;18.60;99.90;;;;;;4991958;28;20029;-79
2023/07/26 10:37:57;;;;;;;7.57;2.53;;;18.60;99.90;;;;;;4994390;28;20044;-80
2023/07/26 10:40:30;;;;;;;5.57;1.90;;;18.40;99.90;;;;;;5007686;28;20678;-79
2023/07/26 10:42:59;;;;;;;4.85;1.85;;;18.30;99.90;;;;;;5009917;28;20065;-80
2023/07/26 10:45:43;;;;;;;6.85;2.20;;;18.20;99.90;;;;;;5008473;28;20106;-80
2023/07/26 10:48:31;;;;;;;6.57;2.40;;;18.30;99.90;;;;;;4975182;28;20045;-80
2023/07/26 10:50:58;;;;;;;7.15;2.38;;;18.60;99.90;;;;;;5026947;28;20037;-79
2023/07/26 10:53:36;;;;;;;6.78;2.50;;;18.70;99.90;;;;;;5007639;28;20124;-79
2023/07/26 10:56:18;;;;;;;6.63;2.20;;;18.70;99.90;;;;;;5007900;28;20091;-79
2023/07/26 10:58:55;;;;;;;5.70;2.00;;;19.00;99.90;;;;;;4989368;28;20128;-79
2023/07/26 11:01:36;;;;;;;6.30;1.90;;;19.00;99.90;;;;;;5004482;28;20037;-79
2023/07/26 11:04:08;;;;;;;6.28;2.30;;;19.20;99.90;;;;;;5007080;28;20061;-79
2023/07/26 11:06:54;;;;;;;5.47;2.00;;;19.20;99.90;;;;;;5023633;28;20598;-79
2023/07/26 11:09:24;;;;;;;6.55;2.20;;;19.20;99.90;;;;;;4990571;28;20065;-79
2023/07/26 11:12:00;;;;;;;5.10;1.70;;;19.00;99.90;;;;;;5009775;28;20041;-79
2023/07/26 11:14:30;;;;;;;6.55;2.20;;;18.70;99.90;;;;;;5006039;28;20169;-80
2023/07/26 11:16:58;;;;;;;8.93;2.42;;;18.40;99.90;;;;;;4976961;28;20502;-81
2023/07/26 11:19:24;;;;;;;8.55;2.72;;;18.00;99.90;;;;;;5024855;28;20326;-79
2023/07/26 11:21:50;;;;;;;7.63;2.17;;;17.40;99.90;;;;;;5008095;28;20292;-80
2023/07/26 11:24:15;;;;;;;6.22;2.00;;;16.90;99.90;;;;;;5008778;28;20142;-81
2023/07/26 11:26:46;;;;;;;6.43;2.08;;;16.50;99.90;;;;;;4995036;28;20410;-81
2023/07/26 11:29:12;;;;;;;8.50;2.22;;;16.30;99.90;;;;;;4991634;28;20503;-81
2023/07/26 11:31:39;;;;;;;7.60;2.00;;;16.10;99.90;;;;;;5023320;28;20033;-81
2023/07/26 11:34:16;;;;;;;5.85;1.85;;;16.00;99.90;;;;;;4990244;28;20044;-81
2023/07/26 11:36:42;;;;;;;5.72;1.83;;;15.90;99.90;;;;;;5018976;28;20131;-81
2023/07/26 11:39:21;;;;;;;4.38;1.50;;;15.90;99.90;;;;;;5009828;28;20120;-80
2023/07/26 11:41:48;;;;;;;5.53;1.90;;;15.70;99.90;;;;;;5009524;28;20060;-81
2023/07/26 11:44:14;;;;;;;5.07;1.60;;;15.60;99.90;;;;;;5005174;28;20501;-81
2023/07/26 11:46:43;;;;;;;6.07;1.60;;;15.60;99.90;;;;;;5023400;28;20038;-83
2023/07/26 11:49:11;;;;;;;6.72;1.65;;;15.50;99.90;;;;;;5007931;28;20483;-82
2023/07/26 11:51:37;;;;;;;5.55;1.67;;;15.50;99.90;;;;;;5003639;28;20303;-82
2023/07/26 11:54:02;;;;;;;4.43;1.30;;;15.50;99.90;;;;;;5009154;28;20257;-81
2023/07/26 11:56:30;;;;;;;5.28;1.50;;;15.50;99.90;;;;;;5007441;28;20037;-81
2023/07/26 11:58:58;;;;;;;4.47;1.40;;;15.50;99.90;;;;;;5021469;28;20076;-81
2023/07/26 12:01:25;;;;;;;7.28;2.00;;;15.60;99.90;;;;;;5008760;28;20452;-80
2023/07/26 12:03:51;;;;;;;5.35;1.70;;;15.70;99.90;;;;;;4990982;28;20037;-81
2023/07/26 12:06:20;;;;;;;4.13;1.52;;;15.90;99.90;;;;;;4993883;28;20158;-81
2023/07/26 12:08:49;;;;;;;6.78;1.77;;;16.30;99.90;;;;;;5010279;28;20065;-80
2023/07/26 12:11:18;;;;;;;4.45;1.60;;;16.60;99.90;;;;;;5006760;28;20495;-80
2023/07/26 12:13:45;;;;;;;4.95;1.50;;;16.80;99.90;;;;;;4987593;28;20135;-80
2023/07/26 12:16:11;;;;;;;3.83;1.50;;;17.10;99.90;;;;;;5007539;28;20280;-80
2023/07/26 12:18:51;;;;;;;5.65;1.80;;;17.40;99.90;;;;;;5007154;28;20048;-80
2023/07/26 12:21:23;;;;;;;6.25;1.90;;;17.60;99.90;;;;;;4976642;28;20073;-80
2023/07/26 12:23:49;;;;;;;6.80;1.80;;;17.90;99.90;;;;;;5020486;28;20058;-80
2023/07/26 12:26:15;;;;;;;5.05;1.90;;;18.10;99.90;;;;;;4987578;28;20049;-80
2023/07/26 12:28:43;;;;;;;5.45;1.83;;;18.20;99.90;;;;;;5001176;28;20077;-80
2023/07/26 12:31:22;;;;;;;7.00;1.85;;;18.40;99.90;;;;;;5005159;28;20543;-80
2023/07/26 12:33:57;;;;;;;4.82;1.77;;;18.70;99.90;;;;;;4989103;28;20395;-80
2023/07/26 12:36:25;;;;;;;7.88;2.28;;;19.00;99.90;;;;;;4986454;28;20030;-80
2023/07/26 12:38:51;;;;;;;3.90;1.48;;;19.30;99.90;;;;;;5001354;28;20042;-79
2023/07/26 12:41:16;;;;;;;4.20;1.50;;;19.40;99.90;;;;;;5003426;28;20045;-79
2023/07/26 12:43:43;;;;;;;5.95;1.90;;;19.30;99.90;;;;;;5002362;28;20038;-79
2023/07/26 12:46:09;;;;;;;4.80;1.80;;;19.10;99.90;;;;;;4982937;28;20064;-79